Time;durP1;ratioP1;P1;durP2;ratioP2;P2;SDS_P1;SDS_P2;PMS_P1;PMS_P2;Temp;Humidity;BMP_temperature;BMP_pressure;BME280_temperature;BME280_humidity;BME280_pressure;Samples;Min_cycle;Max_cycle;Signal;HPM_P1;HPM_P2
2023/09/16 00:02:20;;;;;;;16.73;15.32;;;;;;;;;;5060247;28;20139;-80
2023/09/16 00:04:46;;;;;;;16.15;14.82;;;;;;;;;;5052037;28;20360;-77
2023/09/16 00:07:11;;;;;;;17.38;15.77;;;;;;;;;;5062685;28;20450;-79
2023/09/16 00:09:38;;;;;;;16.02;14.63;;;;;;;;;;5062576;28;20032;-76
2023/09/16 00:12:03;;;;;;;16.00;14.60;;;;;;;;;;5062886;28;20028;-79
2023/09/16 00:14:29;;;;;;;17.70;13.07;;;;;;;;;;5062483;28;20423;-82
2023/09/16 00:16:58;;;;;;;14.50;13.10;;;;;;;;;;5062701;28;20079;-75
2023/09/16 00:19:23;;;;;;;14.88;13.57;;;;;;;;;;5061819;28;20466;-78
2023/09/16 00:21:49;;;;;;;13.82;12.63;;;;;;;;;;5063858;28;20053;-77
2023/09/16 00:24:14;;;;;;;14.02;12.63;;;;;;;;;;5063343;28;20734;-81
2023/09/16 00:26:40;;;;;;;15.05;13.65;;;;;;;;;;5061122;28;20031;-79
2023/09/16 00:29:06;;;;;;;13.20;12.07;;;;;;;;;;5065574;28;20016;-76
2023/09/16 00:31:33;;;;;;;12.63;11.52;;;;;;;;;;5067749;28;20032;-78
2023/09/16 00:33:58;;;;;;;12.93;11.80;;;;;;;;;;5065772;28;20028;-77
2023/09/16 00:36:24;;;;;;;13.15;11.95;;;;;;;;;;5064819;28;20119;-78
2023/09/16 00:38:49;;;;;;;13.48;12.27;;;;;;;;;;5065943;28;20043;-79
2023/09/16 00:41:15;;;;;;;13.77;12.57;;;;;;;;;;5066226;28;20128;-78
2023/09/16 00:43:40;;;;;;;13.23;12.02;;;;;;;;;;5066533;28;20659;-76
2023/09/16 00:46:05;;;;;;;14.82;13.48;;;;;;;;;;5057677;28;20062;-75
2023/09/16 00:48:31;;;;;;;15.10;13.70;;;;;;;;;;5063969;28;20070;-79
2023/09/16 00:50:56;;;;;;;14.45;13.25;;;;;;;;;;5058113;28;20040;-74
2023/09/16 00:53:22;;;;;;;14.90;13.60;;;;;;;;;;5064958;28;20089;-78
2023/09/16 00:55:48;;;;;;;15.13;13.82;;;;;;;;;;5065182;28;20032;-77
2023/09/16 00:58:13;;;;;;;14.80;13.45;;;;;;;;;;5065214;28;20043;-81
2023/09/16 01:00:39;;;;;;;16.75;15.20;;;;;;;;;;5056546;28;20477;-75
2023/09/16 01:03:06;;;;;;;15.80;13.88;;;;;;;;;;5065747;28;20040;-79
2023/09/16 01:05:32;;;;;;;17.65;16.13;;;;;;;;;;5065441;28;20029;-77
2023/09/16 01:07:57;;;;;;;17.75;16.15;;;;;;;;;;5065550;28;20098;-74
2023/09/16 01:10:23;;;;;;;16.73;15.23;;;;;;;;;;5064425;28;20101;-79
2023/09/16 01:12:49;;;;;;;17.33;15.88;;;;;;;;;;5063464;28;20095;-77
2023/09/16 01:15:15;;;;;;;17.83;16.23;;;;;;;;;;5065248;28;20032;-76
2023/09/16 01:18:04;;;;;;;17.58;15.88;;;;;;;;;;5052895;28;20024;-76
2023/09/16 01:20:30;;;;;;;17.20;15.73;;;;;;;;;;5052650;28;20047;-76
2023/09/16 01:22:56;;;;;;;16.92;15.32;;;;;;;;;;5056737;28;20056;-78
2023/09/16 01:25:24;;;;;;;18.95;16.90;;;;;;;;;;5056471;28;20059;-78
2023/09/16 01:27:50;;;;;;;17.50;16.03;;;;;;;;;;5058052;28;20082;-75
2023/09/16 01:30:15;;;;;;;16.25;14.85;;;;;;;;;;5054167;28;20444;-79
2023/09/16 01:32:54;;;;;;;17.52;16.10;;;;;;;;;;5064791;28;20364;-77
2023/09/16 01:35:21;;;;;;;17.08;15.68;;;;;;;;;;5064331;28;20067;-82
2023/09/16 01:37:47;;;;;;;17.38;15.80;;;;;;;;;;5066296;28;20043;-76
2023/09/16 01:40:14;;;;;;;17.48;15.88;;;;;;;;;;5063079;28;20044;-75
2023/09/16 01:42:39;;;;;;;18.67;16.98;;;;;;;;;;5062846;28;20111;-77
2023/09/16 01:45:05;;;;;;;17.88;16.27;;;;;;;;;;5064228;28;20123;-79
2023/09/16 01:47:30;;;;;;;17.33;15.73;;;;;;;;;;5063279;28;20131;-76
2023/09/16 01:49:56;;;;;;;16.67;15.10;;;;;;;;;;5063182;28;20035;-80
2023/09/16 01:52:22;;;;;;;17.63;16.08;;;;;;;;;;5064073;28;20525;-77
2023/09/16 01:54:47;;;;;;;17.33;15.80;;;;;;;;;;5063400;28;20020;-77
2023/09/16 01:57:12;;;;;;;17.08;15.57;;;;;;;;;;5055346;28;20027;-83
2023/09/16 01:59:38;;;;;;;17.63;16.05;;;;;;;;;;5067466;28;20035;-75
2023/09/16 02:02:03;;;;;;;17.23;15.68;;;;;;;;;;5065854;28;20056;-74
2023/09/16 02:04:29;;;;;;;16.67;15.18;;;;;;;;;;5063422;28;20423;-76
2023/09/16 02:06:54;;;;;;;18.25;16.50;;;;;;;;;;5063687;28;20075;-80
2023/09/16 02:09:19;;;;;;;18.60;16.90;;;;;;;;;;5092981;27;20028;-76
2023/09/16 02:11:45;;;;;;;19.15;16.40;;;;;;;;;;5065989;28;20028;-81
2023/09/16 02:14:15;;;;;;;18.80;17.00;;;;;;;;;;5065273;28;20439;-76
2023/09/16 02:16:40;;;;;;;18.10;16.40;;;;;;;;;;5064288;28;20024;-79
2023/09/16 02:19:05;;;;;;;17.25;15.65;;;;;;;;;;5064037;28;20027;-78
2023/09/16 02:21:31;;;;;;;17.75;16.25;;;;;;;;;;5065205;28;20115;-77
2023/09/16 02:23:57;;;;;;;17.13;15.63;;;;;;;;;;5063051;28;20028;-76
2023/09/16 02:26:22;;;;;;;18.70;16.95;;;;;;;;;;5059061;28;20099;-78
2023/09/16 02:28:47;;;;;;;18.48;16.77;;;;;;;;;;5059135;28;20109;-76
2023/09/16 02:31:13;;;;;;;17.50;15.80;;;;;;;;;;5063902;28;20095;-81
2023/09/16 02:33:38;;;;;;;18.65;17.05;;;;;;;;;;5062198;28;20115;-77
2023/09/16 02:36:04;;;;;;;16.38;14.77;;;;;;;;;;5063724;28;20129;-81
2023/09/16 02:38:29;;;;;;;15.32;13.93;;;;;;;;;;5064399;28;20409;-77
2023/09/16 02:40:54;;;;;;;16.98;15.13;;;;;;;;;;5063903;28;20135;-80
2023/09/16 02:43:20;;;;;;;16.08;14.48;;;;;;;;;;5063894;28;20542;-77
2023/09/16 02:45:45;;;;;;;15.02;13.63;;;;;;;;;;5057777;28;20113;-77
2023/09/16 02:48:17;;;;;;;14.90;13.63;;;;;;;;;;5060554;28;20048;-77
2023/09/16 02:50:45;;;;;;;14.45;13.07;;;;;;;;;;5061233;28;20101;-77
2023/09/16 02:53:10;;;;;;;14.45;13.05;;;;;;;;;;5064595;28;20036;-78
2023/09/16 02:55:36;;;;;;;13.75;12.65;;;;;;;;;;5063602;28;20068;-77
2023/09/16 02:58:02;;;;;;;13.98;12.82;;;;;;;;;;5060411;28;20563;-77
2023/09/16 03:00:27;;;;;;;14.55;13.18;;;;;;;;;;5055629;28;20097;-77
2023/09/16 03:02:53;;;;;;;14.65;13.20;;;;;;;;;;5063363;28;20036;-76
2023/09/16 03:05:18;;;;;;;14.38;13.23;;;;;;;;;;5061545;28;20036;-77
2023/09/16 03:07:44;;;;;;;14.93;13.52;;;;;;;;;;5064450;28;20468;-83
2023/09/16 03:10:10;;;;;;;15.77;14.38;;;;;;;;;;5064437;28;20075;-82
2023/09/16 03:12:35;;;;;;;16.00;14.50;;;;;;;;;;5064864;28;20462;-78
2023/09/16 03:15:01;;;;;;;15.23;13.82;;;;;;;;;;5061814;28;20043;-78
2023/09/16 03:17:26;;;;;;;15.55;14.07;;;;;;;;;;5062889;28;20039;-77
2023/09/16 03:19:52;;;;;;;15.85;14.15;;;;;;;;;;5063842;28;20016;-78
2023/09/16 03:22:17;;;;;;;17.60;15.93;;;;;;;;;;5062651;28;20043;-78
2023/09/16 03:24:43;;;;;;;19.52;17.83;;;;;;;;;;5063860;28;20032;-82
2023/09/16 03:27:08;;;;;;;19.17;17.23;;;;;;;;;;5063375;28;20020;-78
2023/09/16 03:29:34;;;;;;;19.42;17.58;;;;;;;;;;5062371;28;20028;-81
2023/09/16 03:31:59;;;;;;;18.25;16.63;;;;;;;;;;5062310;28;20035;-80
2023/09/16 03:34:25;;;;;;;19.35;17.65;;;;;;;;;;5061960;28;20095;-76
2023/09/16 03:36:50;;;;;;;19.25;17.45;;;;;;;;;;5064892;28;20036;-77
2023/09/16 03:39:16;;;;;;;19.15;17.38;;;;;;;;;;5063240;28;20087;-77
2023/09/16 03:41:41;;;;;;;20.05;18.15;;;;;;;;;;5062266;28;20113;-75
2023/09/16 03:44:07;;;;;;;20.20;18.50;;;;;;;;;;5063178;28;20074;-77
2023/09/16 03:46:32;;;;;;;21.70;19.70;;;;;;;;;;5062078;28;20083;-79
2023/09/16 03:48:57;;;;;;;19.30;17.60;;;;;;;;;;5062948;28;20028;-79
2023/09/16 03:51:23;;;;;;;19.35;17.75;;;;;;;;;;5062408;28;20206;-78
2023/09/16 03:53:48;;;;;;;19.67;18.00;;;;;;;;;;5061228;28;20039;-78
2023/09/16 03:56:14;;;;;;;20.55;18.65;;;;;;;;;;5056689;28;20928;-83
2023/09/16 03:58:39;;;;;;;19.70;18.00;;;;;;;;;;5059104;28;20071;-77
2023/09/16 04:01:04;;;;;;;18.17;16.48;;;;;;;;;;5058708;28;20086;-77
2023/09/16 04:03:30;;;;;;;18.05;16.35;;;;;;;;;;5066484;28;20050;-76
2023/09/16 04:05:58;;;;;;;19.95;18.30;;;;;;;;;;5065452;28;20059;-77
2023/09/16 04:08:24;;;;;;;19.35;17.58;;;;;;;;;;5066909;28;20021;-78
2023/09/16 04:10:49;;;;;;;18.70;17.05;;;;;;;;;;5067998;28;22532;-77
2023/09/16 04:13:14;;;;;;;18.42;16.67;;;;;;;;;;5066430;28;20039;-78
2023/09/16 04:15:40;;;;;;;18.88;17.20;;;;;;;;;;5065968;28;20440;-76
2023/09/16 04:18:05;;;;;;;18.05;16.33;;;;;;;;;;5067612;28;20032;-75
2023/09/16 04:20:31;;;;;;;17.70;16.00;;;;;;;;;;5067242;28;20035;-74
2023/09/16 04:22:56;;;;;;;19.50;17.35;;;;;;;;;;5059885;28;20036;-79
2023/09/16 04:25:22;;;;;;;18.90;17.23;;;;;;;;;;5067787;28;20499;-78
2023/09/16 04:27:47;;;;;;;22.50;18.75;;;;;;;;;;5061805;28;20374;-76
2023/09/16 04:30:13;;;;;;;20.80;18.60;;;;;;;;;;5053829;28;20501;-83
2023/09/16 04:32:38;;;;;;;20.77;18.92;;;;;;;;;;5055378;28;20028;-79
2023/09/16 04:35:03;;;;;;;21.05;19.05;;;;;;;;;;5058713;28;20031;-76
2023/09/16 04:37:29;;;;;;;19.90;17.80;;;;;;;;;;5055740;28;20899;-78
2023/09/16 04:39:54;;;;;;;20.50;18.70;;;;;;;;;;5056680;28;20114;-78
2023/09/16 04:42:20;;;;;;;21.13;19.13;;;;;;;;;;5052355;28;20028;-79
2023/09/16 04:44:48;;;;;;;19.25;17.35;;;;;;;;;;5050995;28;20444;-77
2023/09/16 04:47:14;;;;;;;19.45;17.65;;;;;;;;;;5051434;28;20021;-77
2023/09/16 04:49:39;;;;;;;21.10;19.13;;;;;;;;;;5053463;28;20324;-76
2023/09/16 04:52:04;;;;;;;20.33;18.50;;;;;;;;;;5052898;28;20093;-77
2023/09/16 04:54:32;;;;;;;21.23;19.25;;;;;;;;;;5054509;28;20016;-76
2023/09/16 04:56:57;;;;;;;19.40;17.55;;;;;;;;;;5051611;28;20041;-78
2023/09/16 04:59:23;;;;;;;19.15;17.40;;;;;;;;;;5054523;28;20050;-75
2023/09/16 05:01:51;;;;;;;18.38;16.67;;;;;;;;;;5053595;28;20466;-76
2023/09/16 05:04:16;;;;;;;19.60;17.90;;;;;;;;;;5056021;28;20028;-78
2023/09/16 05:06:42;;;;;;;20.33;18.30;;;;;;;;;;5055791;28;20036;-81
2023/09/16 05:09:07;;;;;;;20.77;18.45;;;;;;;;;;5058023;28;20094;-78
2023/09/16 05:11:32;;;;;;;20.75;18.85;;;;;;;;;;5064732;28;20020;-78
2023/09/16 05:13:58;;;;;;;21.52;19.60;;;;;;;;;;5061889;28;20032;-78
2023/09/16 05:16:23;;;;;;;22.15;20.05;;;;;;;;;;5055540;28;20028;-76
2023/09/16 05:18:49;;;;;;;20.60;18.70;;;;;;;;;;5065511;28;20036;-77
2023/09/16 05:21:14;;;;;;;20.63;18.73;;;;;;;;;;5064037;28;20428;-76
2023/09/16 05:23:40;;;;;;;21.45;19.23;;;;;;;;;;5064921;28;20020;-80
2023/09/16 05:26:05;;;;;;;19.98;17.40;;;;;;;;;;5058738;28;20141;-80
2023/09/16 05:28:31;;;;;;;20.20;18.05;;;;;;;;;;5049584;28;20043;-76
2023/09/16 05:30:56;;;;;;;22.00;19.77;;;;;;;;;;5061108;28;20035;-76
2023/09/16 05:33:23;;;;;;;19.98;18.17;;;;;;;;;;5050990;28;20146;-78
2023/09/16 05:35:49;;;;;;;21.90;19.70;;;;;;;;;;5053702;28;20036;-77
2023/09/16 05:38:14;;;;;;;20.48;18.58;;;;;;;;;;5051359;28;20024;-77
2023/09/16 05:40:39;;;;;;;19.23;17.42;;;;;;;;;;5054406;28;20533;-77
2023/09/16 05:43:05;;;;;;;22.13;19.95;;;;;;;;;;5062389;28;20028;-80
2023/09/16 05:45:31;;;;;;;21.08;19.05;;;;;;;;;;5063036;28;20138;-79
2023/09/16 05:47:56;;;;;;;21.42;19.42;;;;;;;;;;5055911;28;20433;-79
2023/09/16 05:50:21;;;;;;;20.98;18.88;;;;;;;;;;5052302;28;20464;-77
2023/09/16 05:52:47;;;;;;;21.55;19.55;;;;;;;;;;5053590;28;20021;-77
2023/09/16 05:55:12;;;;;;;20.90;18.95;;;;;;;;;;5052649;28;20450;-76
2023/09/16 05:57:38;;;;;;;21.73;18.98;;;;;;;;;;5052427;28;20040;-79
2023/09/16 06:00:03;;;;;;;20.52;18.63;;;;;;;;;;5060955;28;20029;-76
2023/09/16 06:02:29;;;;;;;19.58;17.80;;;;;;;;;;5056217;28;20055;-80
2023/09/16 06:04:54;;;;;;;19.67;17.77;;;;;;;;;;5053770;28;20420;-78
2023/09/16 06:07:20;;;;;;;21.20;19.20;;;;;;;;;;5051618;28;21019;-81
2023/09/16 06:09:45;;;;;;;21.38;19.38;;;;;;;;;;5050957;28;20021;-77
2023/09/16 06:12:10;;;;;;;37.20;33.45;;;;;;;;;;5056402;28;20040;-77
2023/09/16 06:14:36;;;;;;;30.52;27.67;;;;;;;;;;5052214;28;20039;-73
2023/09/16 06:17:01;;;;;;;37.80;34.40;;;;;;;;;;5061990;28;20045;-74
2023/09/16 06:19:30;;;;;;;26.40;23.88;;;;;;;;;;5063558;28;20039;-76
2023/09/16 06:21:55;;;;;;;22.43;20.43;;;;;;;;;;5062730;28;20131;-76
2023/09/16 06:24:21;;;;;;;23.40;21.25;;;;;;;;;;5051152;28;20577;-74
2023/09/16 06:26:46;;;;;;;22.50;20.35;;;;;;;;;;5050836;28;20676;-74
2023/09/16 06:29:11;;;;;;;22.33;20.25;;;;;;;;;;5051197;28;20028;-73
2023/09/16 06:31:37;;;;;;;21.42;19.52;;;;;;;;;;5052540;28;20388;-78
2023/09/16 06:34:02;;;;;;;24.05;21.52;;;;;;;;;;5051165;28;20035;-78
2023/09/16 06:36:28;;;;;;;23.50;21.20;;;;;;;;;;5063291;28;20477;-78
2023/09/16 06:38:53;;;;;;;22.20;20.17;;;;;;;;;;5051233;28;20021;-75
2023/09/16 06:41:19;;;;;;;21.95;19.95;;;;;;;;;;5047738;28;20036;-76
2023/09/16 06:43:44;;;;;;;22.20;20.15;;;;;;;;;;5048778;28;20035;-74
2023/09/16 06:46:09;;;;;;;23.58;21.48;;;;;;;;;;5049287;28;20443;-75
2023/09/16 06:48:35;;;;;;;23.48;21.27;;;;;;;;;;5054151;28;20831;-82
2023/09/16 06:51:00;;;;;;;23.33;21.13;;;;;;;;;;5083233;27;20024;-78
2023/09/16 06:53:25;;;;;;;21.90;19.88;;;;;;;;;;5051516;28;20027;-75
2023/09/16 06:55:51;;;;;;;23.48;21.42;;;;;;;;;;5047871;28;20024;-74
2023/09/16 06:58:20;;;;;;;23.83;21.67;;;;;;;;;;5050422;28;20028;-75
2023/09/16 07:00:45;;;;;;;23.60;21.45;;;;;;;;;;5059667;28;20776;-74
2023/09/16 07:03:11;;;;;;;24.55;22.33;;;;;;;;;;5049552;28;20029;-74
2023/09/16 07:05:36;;;;;;;24.05;21.75;;;;;;;;;;5049788;28;20715;-74
2023/09/16 07:08:02;;;;;;;22.80;20.70;;;;;;;;;;5050123;28;20044;-73
2023/09/16 07:10:27;;;;;;;21.52;19.52;;;;;;;;;;5047817;28;20028;-72
2023/09/16 07:12:52;;;;;;;20.00;18.23;;;;;;;;;;5048958;28;20439;-75
2023/09/16 07:15:19;;;;;;;22.20;20.20;;;;;;;;;;5048830;28;20131;-77
2023/09/16 07:17:44;;;;;;;22.52;20.42;;;;;;;;;;5050311;28;20020;-75
2023/09/16 07:20:10;;;;;;;19.83;17.85;;;;;;;;;;5050140;28;20036;-75
2023/09/16 07:22:35;;;;;;;39.30;35.88;;;;;;;;;;5050380;28;20399;-76
2023/09/16 07:25:01;;;;;;;22.92;20.85;;;;;;;;;;5047517;28;20039;-78
2023/09/16 07:27:26;;;;;;;20.45;18.70;;;;;;;;;;5049470;28;20021;-78
2023/09/16 07:29:52;;;;;;;19.50;17.70;;;;;;;;;;5047843;28;20028;-77
2023/09/16 07:32:18;;;;;;;21.75;19.85;;;;;;;;;;5042692;28;20051;-75
2023/09/16 07:34:44;;;;;;;21.73;19.77;;;;;;;;;;5043215;28;20127;-78
2023/09/16 07:37:09;;;;;;;21.40;19.45;;;;;;;;;;5045735;28;20467;-78
2023/09/16 07:39:34;;;;;;;24.40;22.05;;;;;;;;;;5050307;28;20059;-78
2023/09/16 07:42:00;;;;;;;23.73;21.30;;;;;;;;;;5056835;28;20096;-78
2023/09/16 07:44:26;;;;;;;23.88;21.58;;;;;;;;;;5054332;28;20043;-78
2023/09/16 07:46:52;;;;;;;23.17;21.08;;;;;;;;;;5050343;28;20078;-79
2023/09/16 07:49:17;;;;;;;22.88;20.77;;;;;;;;;;5050340;28;20024;-77
2023/09/16 07:51:45;;;;;;;23.70;21.25;;;;;;;;;;5055027;28;20121;-77
2023/09/16 07:54:11;;;;;;;23.27;21.08;;;;;;;;;;5060585;28;20447;-75
2023/09/16 07:56:36;;;;;;;22.52;20.38;;;;;;;;;;5049393;28;20032;-76
2023/09/16 07:59:02;;;;;;;21.35;19.40;;;;;;;;;;5050332;28;20029;-77
2023/09/16 08:01:29;;;;;;;24.63;21.98;;;;;;;;;;5050646;28;20028;-77
2023/09/16 08:03:54;;;;;;;24.45;22.08;;;;;;;;;;5057943;28;20034;-79
2023/09/16 08:06:19;;;;;;;22.90;20.67;;;;;;;;;;5055764;28;20032;-75
2023/09/16 08:08:45;;;;;;;21.52;19.45;;;;;;;;;;5055910;28;20020;-76
2023/09/16 08:11:10;;;;;;;21.45;19.30;;;;;;;;;;5055900;28;20439;-74
2023/09/16 08:13:35;;;;;;;19.02;17.33;;;;;;;;;;5068560;28;20047;-75
2023/09/16 08:16:01;;;;;;;20.17;18.38;;;;;;;;;;5063217;28;20029;-77
2023/09/16 08:18:26;;;;;;;18.65;17.00;;;;;;;;;;5062086;28;20132;-79
2023/09/16 08:20:52;;;;;;;20.73;18.90;;;;;;;;;;5064620;28;20556;-78
2023/09/16 08:23:17;;;;;;;19.63;17.73;;;;;;;;;;5068086;28;20036;-78
2023/09/16 08:25:43;;;;;;;30.95;28.38;;;;;;;;;;5037076;28;20036;-76
2023/09/16 08:28:08;;;;;;;17.08;15.48;;;;;;;;;;5055093;28;20028;-81
2023/09/16 08:30:33;;;;;;;16.40;15.00;;;;;;;;;;5058777;28;20410;-79
2023/09/16 08:32:59;;;;;;;16.27;14.63;;;;;;;;;;5058758;28;20097;-81
2023/09/16 08:35:26;;;;;;;14.68;13.27;;;;;;;;;;5058227;28;20035;-77
2023/09/16 08:37:54;;;;;;;14.88;13.48;;;;;;;;;;5061766;28;20024;-80
2023/09/16 08:40:20;;;;;;;16.13;14.70;;;;;;;;;;5067971;28;20140;-79
2023/09/16 08:43:08;;;;;;;16.10;14.52;;;;;;;;;;5061536;28;20147;-78
2023/09/16 08:45:35;;;;;;;19.07;17.37;;;;;;;;;;5062245;28;20029;-80
2023/09/16 08:48:02;;;;;;;17.60;14.60;;;;;;;;;;5057864;28;20845;-79
2023/09/16 08:50:29;;;;;;;21.58;19.58;;;;;;;;;;5049188;28;20685;-77
2023/09/16 08:52:59;;;;;;;23.20;21.13;;;;;;;;;;5059618;28;20028;-79
2023/09/16 08:55:24;;;;;;;20.73;18.83;;;;;;;;;;5065096;28;20056;-77
2023/09/16 08:58:00;;;;;;;26.95;24.52;;;;;;;;;;5066531;28;20401;-78
2023/09/16 09:00:25;;;;;;;18.02;16.42;;;;;;;;;;5064808;28;20041;-78
2023/09/16 09:02:51;;;;;;;15.63;14.13;;;;;;;;;;5065049;28;20017;-77
2023/09/16 09:05:18;;;;;;;16.38;14.88;;;;;;;;;;5052393;28;20036;-78
2023/09/16 09:07:43;;;;;;;16.67;15.07;;;;;;;;;;5052672;28;20759;-78
2023/09/16 09:10:12;;;;;;;17.38;15.57;;;;;;;;;;5051097;28;20031;-76
2023/09/16 09:12:41;;;;;;;47.03;38.72;;;;;;;;;;5051358;28;20040;-77
2023/09/16 09:15:10;;;;;;;23.50;21.25;;;;;;;;;;5050416;28;20301;-75
2023/09/16 09:17:35;;;;;;;;;;;;;;;;;;5058542;28;20447;-76
2023/09/16 09:20:01;;;;;;;14.67;13.20;;;;;;;;;;5054887;28;19999;-77
2023/09/16 09:22:27;;;;;;;15.07;13.75;;;;;;;;;;5048063;28;20117;-76
2023/09/16 09:24:52;;;;;;;14.93;13.63;;;;;;;;;;5048274;28;20084;-75
2023/09/16 09:27:18;;;;;;;16.38;13.32;;;;;;;;;;5048850;28;20036;-75
2023/09/16 09:29:43;;;;;;;15.25;13.90;;;;;;;;;;5049758;28;20420;-76
2023/09/16 09:32:09;;;;;;;13.82;12.60;;;;;;;;;;5049666;28;20493;-76
2023/09/16 09:34:36;;;;;;;13.18;11.98;;;;;;;;;;5050539;28;20096;-80
2023/09/16 09:37:01;;;;;;;13.00;11.80;;;;;;;;;;5050342;28;21111;-79
2023/09/16 09:39:27;;;;;;;14.02;12.73;;;;;;;;;;5049154;28;20039;-78
2023/09/16 09:41:52;;;;;;;13.52;12.32;;;;;;;;;;5058918;28;20281;-78
2023/09/16 09:44:18;;;;;;;15.77;14.38;;;;;;;;;;5058667;28;20107;-78
2023/09/16 09:46:44;;;;;;;15.07;13.52;;;;;;;;;;5048857;28;20451;-77
2023/09/16 09:49:11;;;;;;;15.18;13.88;;;;;;;;;;5047502;28;20108;-78
2023/09/16 09:51:38;;;;;;;13.18;12.02;;;;;;;;;;5049934;28;20537;-74
2023/09/16 09:54:04;;;;;;;13.15;12.00;;;;;;;;;;5049526;28;20020;-77
2023/09/16 09:56:31;;;;;;;13.70;12.30;;;;;;;;;;5050930;28;20036;-78
2023/09/16 09:58:56;;;;;;;12.65;11.57;;;;;;;;;;5049037;28;20040;-79
2023/09/16 10:01:22;;;;;;;17.80;14.27;;;;;;;;;;5047364;28;20025;-76
2023/09/16 10:03:48;;;;;;;15.05;13.75;;;;;;;;;;5049741;28;20017;-77
2023/09/16 10:06:15;;;;;;;12.30;11.02;;;;;;;;;;5051066;28;20103;-79
2023/09/16 10:08:40;;;;;;;15.75;13.05;;;;;;;;;;5052981;28;20024;-77
2023/09/16 10:11:05;;;;;;;12.60;11.32;;;;;;;;;;5047817;28;20440;-76
2023/09/16 10:13:31;;;;;;;12.20;11.18;;;;;;;;;;5045267;28;20079;-77
2023/09/16 10:16:00;;;;;;;12.38;11.18;;;;;;;;;;5047635;28;20040;-77
2023/09/16 10:18:26;;;;;;;13.10;11.88;;;;;;;;;;5046265;28;20124;-78
2023/09/16 10:20:51;;;;;;;23.00;20.77;;;;;;;;;;5054817;28;20058;-78
2023/09/16 10:23:17;;;;;;;15.73;14.43;;;;;;;;;;5060976;28;20501;-79
2023/09/16 10:25:42;;;;;;;12.32;11.20;;;;;;;;;;5050509;28;20043;-78
2023/09/16 10:28:08;;;;;;;13.48;11.35;;;;;;;;;;5046715;28;20039;-78
2023/09/16 10:30:34;;;;;;;12.18;11.10;;;;;;;;;;5048050;28;20052;-78
2023/09/16 10:33:00;;;;;;;12.35;11.07;;;;;;;;;;5045398;28;20032;-77
2023/09/16 10:35:29;;;;;;;13.00;11.68;;;;;;;;;;5048124;28;20038;-79
2023/09/16 10:37:56;;;;;;;12.65;11.45;;;;;;;;;;5047623;28;20029;-77
2023/09/16 10:40:21;;;;;;;11.75;10.75;;;;;;;;;;5047819;28;20082;-78
2023/09/16 10:42:48;;;;;;;11.23;10.23;;;;;;;;;;5048675;28;21396;-79
2023/09/16 10:45:15;;;;;;;11.85;10.63;;;;;;;;;;5047822;28;20047;-77
2023/09/16 10:47:41;;;;;;;10.50;9.52;;;;;;;;;;5047015;28;20029;-79
2023/09/16 10:50:06;;;;;;;9.98;9.18;;;;;;;;;;5049232;28;20035;-78
2023/09/16 10:52:39;;;;;;;10.73;9.68;;;;;;;;;;5049804;28;20019;-76
2023/09/16 10:55:26;;;;;;;11.10;9.25;;;;;;;;;;5048564;28;20028;-77
2023/09/16 10:57:57;;;;;;;9.30;8.55;;;;;;;;;;5048285;28;20108;-78
2023/09/16 11:00:23;;;;;;;8.70;8.00;;;;;;;;;;5048001;28;20086;-78
2023/09/16 11:02:55;;;;;;;9.85;8.07;;;;;;;;;;5048625;28;20035;-78
2023/09/16 11:05:21;;;;;;;9.15;6.97;;;;;;;;;;5049026;28;20419;-78
2023/09/16 11:07:46;;;;;;;7.10;6.40;;;;;;;;;;5047822;28;20115;-77
2023/09/16 11:10:12;;;;;;;7.32;6.63;;;;;;;;;;5049591;28;20035;-77
2023/09/16 11:12:38;;;;;;;8.00;7.38;;;;;;;;;;5048204;28;20082;-78
2023/09/16 11:15:07;;;;;;;7.57;6.90;;;;;;;;;;5050377;28;20050;-76
2023/09/16 11:17:33;;;;;;;9.35;6.55;;;;;;;;;;5049649;28;20020;-76
2023/09/16 11:20:31;;;;;;;7.05;6.45;;;;;;;;;;5049002;28;20463;-79
2023/09/16 11:22:56;;;;;;;7.57;6.97;;;;;;;;;;5028134;28;20032;-77
2023/09/16 11:25:22;;;;;;;7.75;6.97;;;;;;;;;;5030638;28;20028;-77
2023/09/16 11:27:49;;;;;;;7.53;6.50;;;;;;;;;;5030406;28;20037;-78
2023/09/16 11:30:15;;;;;;;6.22;5.65;;;;;;;;;;5029597;28;20032;-76
2023/09/16 11:32:56;;;;;;;7.90;6.05;;;;;;;;;;5024501;28;20043;-76
2023/09/16 11:35:22;;;;;;;6.32;5.70;;;;;;;;;;5027762;28;20140;-78
2023/09/16 11:37:47;;;;;;;6.03;5.53;;;;;;;;;;5044266;28;20033;-76
2023/09/16 11:40:14;;;;;;;7.20;6.50;;;;;;;;;;5049085;28;20082;-75
2023/09/16 11:42:39;;;;;;;5.60;5.20;;;;;;;;;;5031710;28;20048;-74
2023/09/16 11:45:05;;;;;;;7.20;6.25;;;;;;;;;;5044564;28;20432;-77
2023/09/16 11:47:31;;;;;;;5.80;5.30;;;;;;;;;;5039975;28;20480;-78
2023/09/16 11:49:56;;;;;;;8.07;6.00;;;;;;;;;;5029838;28;20036;-78
2023/09/16 11:52:21;;;;;;;6.05;5.65;;;;;;;;;;5031407;28;21434;-79
2023/09/16 11:54:47;;;;;;;6.00;5.50;;;;;;;;;;5026363;28;20347;-79
2023/09/16 11:57:12;;;;;;;6.53;5.93;;;;;;;;;;5028828;28;20052;-79
2023/09/16 11:59:38;;;;;;;6.18;5.57;;;;;;;;;;5039307;28;20959;-81
2023/09/16 12:02:04;;;;;;;5.82;5.28;;;;;;;;;;5046925;28;20070;-79
2023/09/16 12:04:30;;;;;;;5.55;5.15;;;;;;;;;;5048828;28;20032;-79
2023/09/16 12:06:55;;;;;;;6.93;5.40;;;;;;;;;;5045714;28;20032;-77
2023/09/16 12:09:22;;;;;;;6.38;5.15;;;;;;;;;;5047613;28;20032;-76
2023/09/16 12:11:50;;;;;;;5.65;5.15;;;;;;;;;;5046967;28;20029;-78
2023/09/16 12:14:16;;;;;;;5.43;4.93;;;;;;;;;;5048332;28;20477;-76
2023/09/16 12:16:42;;;;;;;5.68;5.20;;;;;;;;;;5045725;28;20044;-77
2023/09/16 12:19:07;;;;;;;6.25;5.57;;;;;;;;;;5047258;28;20518;-76
2023/09/16 12:21:33;;;;;;;6.38;5.78;;;;;;;;;;5046661;28;20028;-81
2023/09/16 12:23:59;;;;;;;5.18;4.80;;;;;;;;;;5049393;28;20024;-79
2023/09/16 12:26:24;;;;;;;5.72;4.45;;;;;;;;;;5063790;28;20448;-77
2023/09/16 12:28:50;;;;;;;5.88;5.30;;;;;;;;;;5065235;28;20123;-79
2023/09/16 12:31:24;;;;;;;5.75;5.22;;;;;;;;;;5064434;28;20492;-78
2023/09/16 12:33:56;;;;;;;5.68;5.18;;;;;;;;;;5064873;28;20052;-77
2023/09/16 12:36:24;;;;;;;5.43;4.93;;;;;;;;;;5064034;28;20309;-77
2023/09/16 12:38:50;;;;;;;5.47;4.93;;;;;;;;;;5065925;28;20035;-77
2023/09/16 12:41:16;;;;;;;5.53;4.95;;;;;;;;;;5065710;28;20589;-79
2023/09/16 12:43:42;;;;;;;5.05;4.65;;;;;;;;;;5062424;28;20078;-77
2023/09/16 12:46:09;;;;;;;4.90;4.47;;;;;;;;;;5051047;28;20063;-78
2023/09/16 12:48:35;;;;;;;4.80;4.32;;;;;;;;;;5049669;28;20032;-78
2023/09/16 12:51:01;;;;;;;5.78;4.50;;;;;;;;;;5050969;28;20024;-77
2023/09/16 12:53:26;;;;;;;4.60;4.20;;;;;;;;;;5051153;28;20525;-77
2023/09/16 12:55:52;;;;;;;5.05;4.35;;;;;;;;;;5050032;28;20451;-76
2023/09/16 12:58:20;;;;;;;5.03;4.30;;;;;;;;;;5049738;28;20039;-77
2023/09/16 13:00:47;;;;;;;4.53;4.18;;;;;;;;;;5048374;28;20459;-78
2023/09/16 13:03:13;;;;;;;4.82;4.40;;;;;;;;;;5050978;28;20078;-78
2023/09/16 13:05:39;;;;;;;4.82;4.53;;;;;;;;;;5050357;28;20050;-78
2023/09/16 13:08:04;;;;;;;4.70;4.30;;;;;;;;;;5050370;28;20431;-78
2023/09/16 13:10:30;;;;;;;5.25;4.72;;;;;;;;;;5050704;28;20028;-80
2023/09/16 13:12:59;;;;;;;5.30;4.80;;;;;;;;;;5050180;28;20051;-78
2023/09/16 13:15:24;;;;;;;;;;;;;;;;;;5050388;28;20038;-78
2023/09/16 13:17:55;;;;;;;5.33;4.83;;;;;;;;;;5050385;28;20012;-78
2023/09/16 13:20:21;;;;;;;4.78;4.30;;;;;;;;;;5067576;28;20040;-76
2023/09/16 13:22:53;;;;;;;5.68;4.93;;;;;;;;;;5068780;28;20182;-76
2023/09/16 13:25:43;;;;;;;4.75;4.35;;;;;;;;;;5068431;28;20032;-76
2023/09/16 13:28:09;;;;;;;5.35;4.85;;;;;;;;;;5066959;28;20032;-78
2023/09/16 13:30:39;;;;;;;5.10;4.60;;;;;;;;;;5066264;28;20039;-79
2023/09/16 13:33:06;;;;;;;5.57;4.57;;;;;;;;;;5076447;28;20099;-77
2023/09/16 13:35:33;;;;;;;5.47;5.07;;;;;;;;;;5081615;28;20051;-78
2023/09/16 13:37:58;;;;;;;5.88;5.38;;;;;;;;;;5071785;28;20051;-77
2023/09/16 13:40:25;;;;;;;5.43;4.93;;;;;;;;;;5068114;28;20052;-77
2023/09/16 13:42:52;;;;;;;5.38;4.88;;;;;;;;;;5067118;28;20028;-75
2023/09/16 13:45:17;;;;;;;5.85;5.35;;;;;;;;;;5067282;28;20686;-77
2023/09/16 13:47:43;;;;;;;6.03;5.43;;;;;;;;;;5067018;28;20473;-79
2023/09/16 13:50:08;;;;;;;7.45;6.82;;;;;;;;;;5067239;28;20032;-80
2023/09/16 13:52:34;;;;;;;6.45;5.95;;;;;;;;;;5049649;28;20035;-76
2023/09/16 13:54:59;;;;;;;6.43;5.93;;;;;;;;;;5050681;28;20415;-79
2023/09/16 13:57:24;;;;;;;6.18;5.70;;;;;;;;;;5048246;28;20028;-78
2023/09/16 13:59:50;;;;;;;6.00;5.50;;;;;;;;;;5051087;28;20051;-81
2023/09/16 14:02:15;;;;;;;5.50;5.00;;;;;;;;;;5050218;28;20024;-79
2023/09/16 14:04:40;;;;;;;8.20;6.05;;;;;;;;;;5049629;28;20363;-78
2023/09/16 14:07:06;;;;;;;6.38;5.78;;;;;;;;;;5050065;28;20106;-76
2023/09/16 14:09:31;;;;;;;6.97;5.72;;;;;;;;;;5049627;28;20424;-77
2023/09/16 14:11:56;;;;;;;5.85;5.45;;;;;;;;;;5048423;28;20562;-78
2023/09/16 14:14:22;;;;;;;6.28;5.75;;;;;;;;;;5048284;28;20017;-77
2023/09/16 14:16:47;;;;;;;6.43;5.93;;;;;;;;;;5050877;28;20505;-77
2023/09/16 14:19:13;;;;;;;6.25;5.75;;;;;;;;;;5054459;28;20085;-76